createdAt,value
2022-12-13T00:01:41.147Z,16.33
2022-12-13T00:03:43.530Z,15.20
2022-12-13T00:05:45.580Z,15.60
2022-12-13T00:07:47.747Z,14.60
2022-12-13T00:09:49.906Z,14.80
2022-12-13T00:11:52.343Z,14.85
2022-12-13T00:13:54.816Z,15.47
2022-12-13T00:16:02.106Z,15.47
2022-12-13T00:18:04.267Z,18.57
2022-12-13T00:20:06.564Z,13.80
2022-12-13T00:22:08.568Z,17.50
2022-12-13T00:24:10.948Z,16.20
2022-12-13T00:26:19.320Z,16.65
2022-12-13T00:28:21.336Z,14.25
2022-12-13T00:30:23.347Z,16.03
2022-12-13T00:32:25.373Z,14.80
2022-12-13T00:34:27.598Z,15.45
2022-12-13T00:36:29.562Z,15.35
2022-12-13T00:38:31.626Z,14.63
2022-12-13T00:40:33.658Z,15.97
2022-12-13T00:42:35.891Z,14.88
2022-12-13T00:44:37.946Z,13.93
2022-12-13T00:46:41.121Z,15.37
2022-12-13T00:48:43.334Z,13.98
2022-12-13T00:50:45.414Z,15.52
2022-12-13T00:52:47.421Z,15.52
2022-12-13T00:54:49.465Z,12.83
2022-12-13T00:56:51.608Z,12.63
2022-12-13T00:58:55.252Z,15.43
2022-12-13T01:01:05.051Z,15.80
2022-12-13T01:03:20.528Z,13.50
2022-12-13T01:05:46.119Z,15.55
2022-12-13T01:07:45.180Z,14.97
2022-12-13T01:09:47.129Z,15.88
2022-12-13T01:11:49.856Z,14.65
2022-12-13T01:13:52.145Z,15.07
2022-12-13T01:15:54.229Z,16.52
2022-12-13T01:17:56.130Z,15.40
2022-12-13T01:20:00.012Z,15.73
2022-12-13T01:22:05.261Z,15.75
2022-12-13T01:24:07.891Z,15.93
2022-12-13T01:26:12.654Z,16.55
2022-12-13T01:28:14.604Z,18.17
2022-12-13T01:30:16.640Z,16.42
2022-12-13T01:32:18.622Z,15.53
2022-12-13T01:34:26.610Z,14.50
2022-12-13T01:36:28.825Z,16.08
2022-12-13T01:38:30.972Z,14.20
2022-12-13T01:40:32.964Z,15.35
2022-12-13T01:42:40.762Z,16.35
2022-12-13T01:45:04.000Z,15.13
2022-12-13T01:47:06.371Z,14.35
2022-12-13T01:49:19.698Z,14.65
2022-12-13T01:51:28.149Z,14.80
2022-12-13T01:53:33.417Z,13.95
2022-12-13T01:55:41.411Z,15.52
2022-12-13T01:57:45.913Z,14.13
2022-12-13T01:59:49.312Z,15.52
2022-12-13T02:01:51.348Z,16.65
2022-12-13T02:03:53.440Z,15.95
2022-12-13T02:06:18.361Z,13.70
2022-12-13T02:08:20.584Z,14.07
2022-12-13T02:10:22.649Z,13.55
2022-12-13T02:12:30.787Z,14.63
2022-12-13T02:14:35.593Z,15.85
2022-12-13T02:17:02.730Z,14.23
2022-12-13T02:19:11.242Z,14.07
2022-12-13T02:21:24.292Z,13.25
2022-12-13T02:23:59.854Z,12.88
2022-12-13T02:26:35.636Z,13.13
2022-12-13T02:29:30.533Z,14.43
2022-12-13T02:31:42.565Z,14.82
2022-12-13T02:33:59.724Z,14.90
2022-12-13T02:36:08.670Z,15.20
2022-12-13T02:38:29.648Z,15.68
2022-12-13T02:40:55.669Z,14.68
2022-12-13T02:43:23.322Z,16.03
2022-12-13T02:45:47.833Z,15.63
2022-12-13T02:47:52.643Z,14.77
2022-12-13T02:49:57.924Z,15.90
2022-12-13T02:52:00.600Z,14.60
2022-12-13T02:54:02.765Z,14.00
2022-12-13T02:56:04.872Z,13.68
2022-12-13T02:58:07.495Z,13.00
2022-12-13T03:00:21.481Z,14.40
2022-12-13T03:02:32.626Z,15.75
2022-12-13T03:05:14.477Z,14.15
2022-12-13T03:07:24.428Z,14.60
2022-12-13T03:09:47.030Z,12.32
2022-12-13T03:12:21.777Z,15.18
2022-12-13T03:14:24.664Z,14.60
2022-12-13T03:16:43.009Z,13.45
2022-12-13T03:18:45.664Z,14.15
2022-12-13T03:20:50.239Z,13.55
2022-12-13T03:22:53.205Z,12.90
2022-12-13T03:24:55.370Z,14.80
2022-12-13T03:26:57.378Z,14.00
2022-12-13T03:28:59.389Z,13.27
2022-12-13T03:31:04.851Z,14.63
2022-12-13T03:33:06.978Z,13.00
2022-12-13T03:35:21.830Z,14.43
2022-12-13T03:37:24.672Z,14.80
2022-12-13T03:39:26.669Z,13.40
2022-12-13T03:41:32.810Z,14.02
2022-12-13T03:43:34.811Z,14.10
2022-12-13T03:45:37.186Z,14.10
2022-12-13T03:47:39.292Z,13.13
2022-12-13T03:49:41.217Z,13.88
2022-12-13T03:51:43.251Z,14.60
2022-12-13T03:53:45.301Z,14.50
2022-12-13T03:55:48.103Z,13.80
2022-12-13T03:58:07.563Z,13.63
2022-12-13T04:00:10.527Z,14.02
2022-12-13T04:02:15.398Z,12.65
2022-12-13T04:04:37.314Z,14.45
2022-12-13T04:06:39.273Z,13.68
2022-12-13T04:08:41.484Z,13.45
2022-12-13T04:10:43.519Z,14.32
2022-12-13T04:13:03.797Z,13.05
2022-12-13T04:15:06.498Z,14.32
2022-12-13T04:17:08.468Z,14.15
2022-12-13T04:19:10.896Z,14.07
2022-12-13T04:21:12.860Z,14.35
2022-12-13T04:23:15.316Z,13.60
2022-12-13T04:25:17.596Z,14.75
2022-12-13T04:27:20.304Z,14.32
2022-12-13T04:29:22.470Z,15.35
2022-12-13T04:31:24.543Z,13.80
2022-12-13T04:33:26.613Z,15.00
2022-12-13T04:35:28.758Z,14.82
2022-12-13T04:37:31.112Z,13.15
2022-12-13T04:39:34.488Z,13.50
2022-12-13T04:41:38.349Z,13.38
2022-12-13T04:43:40.405Z,13.20
2022-12-13T04:45:42.613Z,13.77
2022-12-13T04:47:44.689Z,14.68
2022-12-13T04:49:47.962Z,12.55
2022-12-13T04:51:50.017Z,12.10
2022-12-13T04:53:52.453Z,15.75
2022-12-13T04:55:54.684Z,13.88
2022-12-13T04:57:56.659Z,13.35
2022-12-13T04:59:59.340Z,13.77
2022-12-13T05:02:01.429Z,13.02
2022-12-13T05:04:03.747Z,13.40
2022-12-13T05:06:26.817Z,14.13
2022-12-13T05:08:30.027Z,13.98
2022-12-13T05:10:37.594Z,13.13
2022-12-13T05:12:39.892Z,14.80
2022-12-13T05:14:41.915Z,15.27
2022-12-13T05:16:44.137Z,13.40
2022-12-13T05:18:46.176Z,14.10
2022-12-13T05:20:48.210Z,13.43
2022-12-13T05:22:50.177Z,14.85
2022-12-13T05:24:52.179Z,13.95
2022-12-13T05:26:54.167Z,14.05
2022-12-13T05:28:56.935Z,15.55
2022-12-13T05:31:05.875Z,14.68
2022-12-13T05:33:26.030Z,13.52
2022-12-13T05:35:28.020Z,13.18
2022-12-13T05:37:30.039Z,13.55
2022-12-13T05:39:36.987Z,13.68
2022-12-13T05:41:39.060Z,12.10
2022-12-13T05:43:43.073Z,14.60
2022-12-13T05:45:46.374Z,14.55
2022-12-13T05:47:48.930Z,16.15
2022-12-13T05:49:52.450Z,14.40
2022-12-13T05:51:54.433Z,15.80
2022-12-13T05:53:57.134Z,17.23
2022-12-13T05:56:02.616Z,16.48
2022-12-13T05:58:04.964Z,18.05
2022-12-13T06:00:29.980Z,15.77
2022-12-13T06:02:32.730Z,15.98
2022-12-13T06:04:34.794Z,16.35
2022-12-13T06:06:37.648Z,16.58
2022-12-13T06:08:41.020Z,17.50
2022-12-13T06:10:43.121Z,14.80
2022-12-13T06:12:45.159Z,16.83
2022-12-13T06:14:47.147Z,15.82
2022-12-13T06:16:49.167Z,14.35
2022-12-13T06:18:59.053Z,16.67
2022-12-13T06:21:06.377Z,15.98
2022-12-13T06:23:08.375Z,18.00
2022-12-13T06:25:31.322Z,16.90
2022-12-13T06:27:32.451Z,17.40
2022-12-13T06:29:34.459Z,15.10
2022-12-13T06:31:36.780Z,16.35
2022-12-13T06:33:39.120Z,15.05
2022-12-13T06:35:41.565Z,15.07
2022-12-13T06:37:43.759Z,16.35
2022-12-13T06:39:45.897Z,14.70
2022-12-13T06:41:48.009Z,15.80
2022-12-13T06:43:49.981Z,16.15
2022-12-13T06:45:51.994Z,15.90
2022-12-13T06:47:53.957Z,16.92
2022-12-13T06:49:55.971Z,16.88
2022-12-13T06:52:11.834Z,16.00
2022-12-13T06:54:13.928Z,15.98
2022-12-13T06:56:16.056Z,16.15
2022-12-13T06:58:17.992Z,15.55
2022-12-13T07:00:22.326Z,14.25
2022-12-13T07:02:26.189Z,16.60
2022-12-13T07:04:29.978Z,15.00
2022-12-13T07:06:33.052Z,14.82
2022-12-13T07:08:36.102Z,15.07
2022-12-13T07:10:39.345Z,15.55
2022-12-13T07:12:41.343Z,18.20
2022-12-13T07:14:43.339Z,15.40
2022-12-13T07:16:45.393Z,15.02
2022-12-13T07:18:47.735Z,16.40
2022-12-13T07:20:49.803Z,15.95
2022-12-13T07:22:58.874Z,16.65
2022-12-13T07:25:01.141Z,15.43
2022-12-13T07:27:03.810Z,15.70
2022-12-13T07:29:05.813Z,15.75
2022-12-13T07:31:09.396Z,16.30
2022-12-13T07:33:11.452Z,14.82
2022-12-13T07:35:13.512Z,16.30
2022-12-13T07:37:30.702Z,15.23
2022-12-13T07:39:33.199Z,17.90
2022-12-13T07:41:35.337Z,14.80
2022-12-13T07:43:37.404Z,16.25
2022-12-13T07:45:39.379Z,15.95
2022-12-13T07:47:41.354Z,15.43
2022-12-13T07:49:43.386Z,16.10
2022-12-13T07:51:45.368Z,17.25
2022-12-13T07:53:47.342Z,16.10
2022-12-13T07:55:49.308Z,15.77
2022-12-13T07:57:53.551Z,16.17
2022-12-13T07:59:55.626Z,16.00
2022-12-13T08:01:57.789Z,18.30
2022-12-13T08:04:04.845Z,17.40
2022-12-13T08:06:09.521Z,16.27
2022-12-13T08:08:11.799Z,18.03
2022-12-13T08:10:14.096Z,15.83
2022-12-13T08:12:16.156Z,15.47
2022-12-13T08:14:24.815Z,17.00
2022-12-13T08:16:29.399Z,15.37
2022-12-13T08:18:32.663Z,15.67
2022-12-13T08:20:34.670Z,18.87
2022-12-13T08:22:36.628Z,17.30
2022-12-13T08:24:38.688Z,17.17
2022-12-13T08:26:40.688Z,16.97
2022-12-13T08:28:44.349Z,17.70
2022-12-13T08:30:47.493Z,16.70
2022-12-13T08:32:50.804Z,17.63
2022-12-13T08:34:52.840Z,18.93
2022-12-13T08:37:01.760Z,18.03
2022-12-13T08:39:05.141Z,18.03
2022-12-13T08:41:07.243Z,16.67
2022-12-13T08:43:09.412Z,18.43
2022-12-13T08:45:12.253Z,19.50
2022-12-13T08:47:23.480Z,18.40
2022-12-13T08:49:27.057Z,18.77
2022-12-13T08:51:35.269Z,17.67
2022-12-13T08:53:40.964Z,19.37
2022-12-13T08:55:43.731Z,18.43
2022-12-13T08:57:46.011Z,19.40
2022-12-13T08:59:47.955Z,20.17
2022-12-13T09:01:53.771Z,21.37
2022-12-13T09:03:57.243Z,19.53
2022-12-13T09:06:10.552Z,18.03
2022-12-13T09:08:23.692Z,17.57
2022-12-13T09:10:27.873Z,19.27
2022-12-13T09:12:31.189Z,18.63
2022-12-13T09:14:34.399Z,20.67
2022-12-13T09:16:36.879Z,20.90
2022-12-13T09:18:39.176Z,17.33
2022-12-13T09:20:42.734Z,17.50
2022-12-13T09:22:45.103Z,17.73
2022-12-13T09:24:49.985Z,19.17
2022-12-13T09:26:57.080Z,19.13
2022-12-13T09:28:59.513Z,18.43
2022-12-13T09:31:17.511Z,20.73
2022-12-13T09:33:30.342Z,18.30
2022-12-13T09:35:33.152Z,18.37
2022-12-13T09:37:36.376Z,16.87
2022-12-13T09:39:40.704Z,18.70
2022-12-13T09:41:47.256Z,17.50
2022-12-13T09:43:53.548Z,19.87
2022-12-13T09:46:13.198Z,19.43
2022-12-13T09:48:25.540Z,20.33
2022-12-13T09:50:37.813Z,19.30
2022-12-13T09:52:42.820Z,18.30
2022-12-13T09:54:48.846Z,19.70
2022-12-13T09:56:52.315Z,18.27
2022-12-13T09:58:56.495Z,17.97
2022-12-13T10:00:59.135Z,26.23
2022-12-13T10:03:01.514Z,20.50
2022-12-13T10:05:40.273Z,22.20
2022-12-13T10:07:42.805Z,17.13
2022-12-13T10:09:45.399Z,17.47
2022-12-13T10:11:52.917Z,17.93
2022-12-13T10:14:01.304Z,18.60
2022-12-13T10:16:13.500Z,18.80
2022-12-13T10:18:27.300Z,17.73
2022-12-13T10:20:29.962Z,19.30
2022-12-13T10:22:32.160Z,18.37
2022-12-13T10:24:52.088Z,16.53
2022-12-13T10:26:54.685Z,18.70
2022-12-13T10:29:06.600Z,17.53
2022-12-13T10:31:09.066Z,19.43
2022-12-13T10:33:31.568Z,17.57
2022-12-13T10:35:38.231Z,17.73
2022-12-13T10:37:40.407Z,18.67
2022-12-13T10:39:43.595Z,18.93
2022-12-13T10:41:47.651Z,18.33
2022-12-13T10:44:09.748Z,18.27
2022-12-13T10:46:24.906Z,18.80
2022-12-13T10:48:49.457Z,17.17
2022-12-13T10:51:05.625Z,17.73
2022-12-13T10:53:15.385Z,17.27
2022-12-13T10:55:35.848Z,20.30
2022-12-13T10:57:37.861Z,17.03
2022-12-13T10:59:40.098Z,21.43
2022-12-13T11:01:42.163Z,17.30
2022-12-13T11:03:56.427Z,19.20
2022-12-13T11:06:13.587Z,17.83
2022-12-13T11:08:23.920Z,17.97
2022-12-13T11:10:29.104Z,16.83
2022-12-13T11:12:31.225Z,17.60
2022-12-13T11:14:41.867Z,18.03
2022-12-13T11:16:50.282Z,17.90
2022-12-13T11:18:55.354Z,18.23
2022-12-13T11:21:00.762Z,15.80
2022-12-13T11:23:11.134Z,17.93
2022-12-13T11:25:38.728Z,18.13
2022-12-13T11:27:59.923Z,16.53
2022-12-13T11:30:19.651Z,15.77
2022-12-13T11:32:41.613Z,15.60
2022-12-13T11:34:55.665Z,16.03
2022-12-13T11:37:15.903Z,15.53
2022-12-13T11:39:29.889Z,15.20
2022-12-13T11:41:55.416Z,16.17
2022-12-13T11:44:04.009Z,14.87
2022-12-13T11:46:13.797Z,13.90
2022-12-13T11:48:32.983Z,14.07
2022-12-13T11:50:48.744Z,16.00
2022-12-13T11:52:53.617Z,14.33
2022-12-13T11:54:58.600Z,14.57
2022-12-13T11:57:05.498Z,15.43
2022-12-13T11:59:26.043Z,16.00
2022-12-13T12:01:54.938Z,15.70
2022-12-13T12:04:32.252Z,13.30
2022-12-13T12:06:39.554Z,15.43
2022-12-13T12:08:57.791Z,14.70
2022-12-13T12:11:30.687Z,15.20
2022-12-13T12:13:50.958Z,15.27
2022-12-13T12:16:00.193Z,15.33
2022-12-13T12:18:02.443Z,15.87
2022-12-13T12:20:07.242Z,15.87
2022-12-13T12:22:35.904Z,14.53
2022-12-13T12:24:57.348Z,14.60
2022-12-13T12:27:06.167Z,15.27
2022-12-13T12:29:26.381Z,16.10
2022-12-13T12:31:50.726Z,17.13
2022-12-13T12:33:53.647Z,16.10
2022-12-13T12:35:59.785Z,16.80
2022-12-13T12:38:30.795Z,14.77
2022-12-13T12:41:14.168Z,16.20
2022-12-13T12:43:15.937Z,16.40
2022-12-13T12:45:58.030Z,16.30
2022-12-13T12:50:45.480Z,16.23
2022-12-13T12:52:55.168Z,16.77
2022-12-13T12:55:39.412Z,14.53
2022-12-13T12:58:03.162Z,15.30
2022-12-13T13:00:15.599Z,17.10
2022-12-13T13:02:23.324Z,14.37
2022-12-13T13:04:42.389Z,15.30
2022-12-13T13:06:51.701Z,15.77
2022-12-13T13:09:03.817Z,14.13
2022-12-13T13:11:24.468Z,15.00
2022-12-13T13:13:46.097Z,13.57
2022-12-13T13:15:56.377Z,15.67
2022-12-13T13:17:59.893Z,14.03
2022-12-13T13:20:23.583Z,14.00
2022-12-13T13:22:31.539Z,14.00
2022-12-13T13:24:34.804Z,14.00
2022-12-13T13:26:44.797Z,13.50
2022-12-13T13:28:46.947Z,14.17
2022-12-13T13:31:09.090Z,14.50
2022-12-13T13:33:57.300Z,14.20
2022-12-13T13:36:00.030Z,15.27
2022-12-13T13:38:06.839Z,14.30
2022-12-13T13:40:30.251Z,15.30
2022-12-13T13:42:33.264Z,15.37
2022-12-13T13:44:51.449Z,14.57
2022-12-13T13:47:14.348Z,15.13
2022-12-13T13:49:16.495Z,15.43
2022-12-13T13:51:41.475Z,14.93
2022-12-13T13:54:06.660Z,16.10
2022-12-13T13:56:30.122Z,15.80
2022-12-13T13:58:41.167Z,14.30
2022-12-13T14:01:04.808Z,14.90
2022-12-13T14:03:50.795Z,14.80
2022-12-13T14:06:32.762Z,15.07
2022-12-13T14:08:43.981Z,16.30
2022-12-13T14:11:04.828Z,17.17
2022-12-13T14:13:07.897Z,15.83
2022-12-13T14:15:37.375Z,14.93
2022-12-13T14:17:48.592Z,17.00
2022-12-13T14:20:32.430Z,17.77
2022-12-13T14:23:45.399Z,16.50
2022-12-13T14:26:13.867Z,15.83
2022-12-13T14:28:48.018Z,15.17
2022-12-13T14:30:57.616Z,18.13
2022-12-13T14:32:59.991Z,16.57
2022-12-13T14:35:25.630Z,17.57
2022-12-13T14:37:33.431Z,15.73
2022-12-13T14:39:35.487Z,15.43
2022-12-13T14:41:48.862Z,17.03
2022-12-13T14:44:23.759Z,18.80
2022-12-13T14:46:32.344Z,17.87
2022-12-13T14:48:37.528Z,18.13
2022-12-13T14:50:40.383Z,17.07
2022-12-13T14:52:43.551Z,20.50
2022-12-13T14:54:58.857Z,23.00
2022-12-13T14:57:03.626Z,23.90
2022-12-13T14:59:13.024Z,31.40
2022-12-13T15:01:37.397Z,24.87
2022-12-13T15:03:39.447Z,20.40
2022-12-13T15:05:48.843Z,18.80
2022-12-13T15:07:53.349Z,19.47
2022-12-13T15:09:57.857Z,19.60
2022-12-13T15:12:14.984Z,17.83
2022-12-13T15:14:23.995Z,17.77
2022-12-13T15:16:28.340Z,17.97
2022-12-13T15:18:36.194Z,18.33
2022-12-13T15:20:41.831Z,16.60
2022-12-13T15:23:04.763Z,18.13
2022-12-13T15:25:13.726Z,16.90
2022-12-13T15:27:21.842Z,17.63
2022-12-13T15:29:25.571Z,17.37
2022-12-13T15:31:28.018Z,17.93
2022-12-13T15:33:35.576Z,19.10
2022-12-13T15:35:41.518Z,18.53
2022-12-13T15:37:50.207Z,19.20
2022-12-13T15:39:54.709Z,18.47
2022-12-13T15:41:57.134Z,17.80
2022-12-13T15:44:07.076Z,18.60
2022-12-13T15:46:10.175Z,19.73
2022-12-13T15:48:30.464Z,17.80
2022-12-13T15:50:35.823Z,18.67
2022-12-13T15:52:40.565Z,18.93
2022-12-13T15:54:56.959Z,18.97
2022-12-13T15:57:14.685Z,18.30
2022-12-13T15:59:36.358Z,18.20
2022-12-13T16:01:38.325Z,18.60
2022-12-13T16:03:42.920Z,18.20
2022-12-13T16:05:52.593Z,20.87
2022-12-13T16:07:56.853Z,19.90
2022-12-13T16:09:59.065Z,19.17
2022-12-13T16:12:06.993Z,18.03
2022-12-13T16:14:40.019Z,20.27
2022-12-13T16:16:51.212Z,16.67
2022-12-13T16:18:57.557Z,18.83
2022-12-13T16:20:59.776Z,16.90
2022-12-13T16:23:08.703Z,17.83
2022-12-13T16:25:13.108Z,17.17
2022-12-13T16:27:15.503Z,22.67
2022-12-13T16:29:21.963Z,24.73
2022-12-13T16:31:35.265Z,25.40
2022-12-13T16:33:37.500Z,22.07
2022-12-13T16:35:39.629Z,21.33
2022-12-13T16:37:41.720Z,23.10
2022-12-13T16:39:50.205Z,22.43
2022-12-13T16:41:54.048Z,22.50
2022-12-13T16:43:58.781Z,21.50
2022-12-13T16:47:16.134Z,21.87
2022-12-13T16:48:26.050Z,21.30
2022-12-13T16:50:28.167Z,22.10
2022-12-13T16:52:30.148Z,23.53
2022-12-13T16:54:32.072Z,23.43
2022-12-13T16:56:34.120Z,21.53
2022-12-13T16:58:36.065Z,23.80
2022-12-13T17:00:38.822Z,22.17
2022-12-13T17:02:41.097Z,23.37
2022-12-13T17:04:43.274Z,22.47
2022-12-13T17:06:47.160Z,26.40
2022-12-13T17:08:49.435Z,23.57
2022-12-13T17:10:57.809Z,22.00
2022-12-13T17:13:00.464Z,24.23
2022-12-13T17:15:02.458Z,23.97
2022-12-13T17:17:04.507Z,24.20
2022-12-13T17:19:06.544Z,21.60
2022-12-13T17:21:10.045Z,22.90
2022-12-13T17:23:17.822Z,23.03
2022-12-13T17:25:20.374Z,24.87
2022-12-13T17:27:22.518Z,25.43
2022-12-13T17:29:25.031Z,24.80
2022-12-13T17:31:33.313Z,24.93
2022-12-13T17:33:37.205Z,25.73
2022-12-13T17:35:40.493Z,26.00
2022-12-13T17:37:43.546Z,26.83
2022-12-13T17:39:45.633Z,28.50
2022-12-13T17:41:55.704Z,30.60
2022-12-13T17:43:59.848Z,30.77
2022-12-13T17:46:03.894Z,25.83
2022-12-13T17:48:06.092Z,22.80
2022-12-13T17:50:09.085Z,22.63
2022-12-13T17:52:11.110Z,24.50
2022-12-13T17:54:13.164Z,26.13
2022-12-13T17:56:15.973Z,30.60
2022-12-13T17:58:17.960Z,30.27
2022-12-13T18:00:20.012Z,30.35
2022-12-13T18:02:23.090Z,29.95
2022-12-13T18:04:25.167Z,26.83
2022-12-13T18:06:27.410Z,25.33
2022-12-13T18:08:29.376Z,25.90
2022-12-13T18:10:31.446Z,27.25
2022-12-13T18:12:33.441Z,26.10
2022-12-13T18:14:36.120Z,25.77
2022-12-13T18:16:39.678Z,26.23
2022-12-13T18:18:41.823Z,26.93
2022-12-13T18:20:44.741Z,26.20
2022-12-13T18:22:51.221Z,24.60
2022-12-13T18:24:53.533Z,26.40
2022-12-13T18:26:55.589Z,25.50
2022-12-13T18:28:57.599Z,24.90
2022-12-13T18:31:03.767Z,27.30
2022-12-13T18:33:06.780Z,27.47
2022-12-13T18:35:08.939Z,27.10
2022-12-13T18:37:10.872Z,25.03
2022-12-13T18:39:13.222Z,28.80
2022-12-13T18:41:20.237Z,28.73
2022-12-13T18:43:23.676Z,28.33
2022-12-13T18:45:25.786Z,30.07
2022-12-13T18:47:27.932Z,29.15
2022-12-13T18:49:29.983Z,28.03
2022-12-13T18:51:33.493Z,29.50
2022-12-13T18:53:37.139Z,27.35
2022-12-13T18:55:39.142Z,27.87
2022-12-13T18:57:41.176Z,27.10
2022-12-13T18:59:43.753Z,27.07
2022-12-13T19:01:56.484Z,27.90
2022-12-13T19:03:58.888Z,27.35
2022-12-13T19:06:01.398Z,25.95
2022-12-13T19:08:05.172Z,26.35
2022-12-13T19:10:08.077Z,26.38
2022-12-13T19:12:10.089Z,25.83
2022-12-13T19:14:12.411Z,27.38
2022-12-13T19:16:16.671Z,27.52
2022-12-13T19:18:19.021Z,25.60
2022-12-13T19:20:21.285Z,26.27
2022-12-13T19:22:23.283Z,26.00
2022-12-13T19:24:25.405Z,24.73
2022-12-13T19:26:28.857Z,22.70
2022-12-13T19:28:30.850Z,23.35
2022-12-13T19:30:32.913Z,25.90
2022-12-13T19:32:34.938Z,24.27
2022-12-13T19:34:36.944Z,22.50
2022-12-13T19:36:39.093Z,24.25
2022-12-13T19:38:41.902Z,21.33
2022-12-13T19:40:44.053Z,21.80
2022-12-13T19:42:46.159Z,22.55
2022-12-13T19:44:48.244Z,21.65
2022-12-13T19:46:51.034Z,20.27
2022-12-13T19:48:53.157Z,21.17
2022-12-13T19:51:00.257Z,20.50
2022-12-13T19:53:02.216Z,21.00
2022-12-13T19:55:05.786Z,22.35
2022-12-13T19:57:07.721Z,21.42
2022-12-13T19:59:10.960Z,21.50
2022-12-13T20:01:13.248Z,20.77
2022-12-13T20:03:15.547Z,19.50
2022-12-13T20:05:18.466Z,20.30
2022-12-13T20:07:20.886Z,19.52
2022-12-13T20:09:23.176Z,19.35
2022-12-13T20:11:25.164Z,21.58
2022-12-13T20:13:28.073Z,20.10
2022-12-13T20:15:30.759Z,19.90
2022-12-13T20:17:32.931Z,20.58
2022-12-13T20:19:35.034Z,22.90
2022-12-13T20:21:37.114Z,20.40
2022-12-13T20:23:39.148Z,18.25
2022-12-13T20:25:41.180Z,19.48
2022-12-13T20:27:44.181Z,22.10
2022-12-13T20:29:48.709Z,20.10
2022-12-13T20:31:53.354Z,20.73
2022-12-13T20:34:00.380Z,20.15
2022-12-13T20:36:25.183Z,20.17
2022-12-13T20:38:27.803Z,19.30
2022-12-13T20:40:29.822Z,21.73
2022-12-13T20:42:33.255Z,18.35
2022-12-13T20:44:35.384Z,20.10
2022-12-13T20:46:37.878Z,20.20
2022-12-13T20:48:45.004Z,18.05
2022-12-13T20:50:48.857Z,18.90
2022-12-13T20:52:51.943Z,19.50
2022-12-13T20:54:53.886Z,18.58
2022-12-13T20:56:55.965Z,20.65
2022-12-13T20:58:57.902Z,21.25
2022-12-13T21:00:59.964Z,17.98
2022-12-13T21:03:03.652Z,19.50
2022-12-13T21:05:05.957Z,18.23
2022-12-13T21:07:08.009Z,18.50
2022-12-13T21:09:11.326Z,19.95
2022-12-13T21:11:25.527Z,19.00
2022-12-13T21:13:27.997Z,19.10
2022-12-13T21:15:30.333Z,21.27
2022-12-13T21:17:32.385Z,19.40
2022-12-13T21:19:39.458Z,20.33
2022-12-13T21:21:42.861Z,20.73
2022-12-13T21:23:44.856Z,21.15
2022-12-13T21:25:48.107Z,20.60
2022-12-13T21:27:50.225Z,20.90
2022-12-13T21:29:52.197Z,20.42
2022-12-13T21:31:54.889Z,21.13
2022-12-13T21:33:59.079Z,18.00
2022-12-13T21:36:14.576Z,19.17
2022-12-13T21:38:16.588Z,19.52
2022-12-13T21:40:18.544Z,18.73
2022-12-13T21:42:20.548Z,19.33
2022-12-13T21:44:22.577Z,19.15
2022-12-13T21:46:47.534Z,16.67
2022-12-13T21:48:51.213Z,17.52
2022-12-13T21:50:53.218Z,18.60
2022-12-13T21:52:55.310Z,16.40
2022-12-13T21:55:15.260Z,18.50
2022-12-13T21:57:38.035Z,18.55
2022-12-13T21:59:40.021Z,17.38
2022-12-13T22:02:08.743Z,16.33
2022-12-13T22:04:12.049Z,17.90
2022-12-13T22:06:14.077Z,18.23
2022-12-13T22:08:16.130Z,19.20
2022-12-13T22:10:18.108Z,17.15
2022-12-13T22:12:23.710Z,17.00
2022-12-13T22:14:26.175Z,18.38
2022-12-13T22:16:28.844Z,19.25
2022-12-13T22:18:30.934Z,19.25
2022-12-13T22:20:33.085Z,19.52
2022-12-13T22:22:35.254Z,18.77
2022-12-13T22:24:37.784Z,16.75
2022-12-13T22:26:40.514Z,17.50
2022-12-13T22:28:42.498Z,18.23
2022-12-13T22:30:45.449Z,17.40
2022-12-13T22:32:47.569Z,19.27
2022-12-13T22:34:49.815Z,19.25
2022-12-13T22:36:52.650Z,17.83
2022-12-13T22:38:54.723Z,18.77
2022-12-13T22:41:03.304Z,16.05
2022-12-13T22:43:05.362Z,17.55
2022-12-13T22:45:07.740Z,16.60
2022-12-13T22:47:09.756Z,18.63
2022-12-13T22:49:12.624Z,18.20
2022-12-13T22:51:16.739Z,19.95
2022-12-13T22:53:18.858Z,19.80
2022-12-13T22:55:20.843Z,19.83
2022-12-13T22:57:23.237Z,16.85
2022-12-13T22:59:25.302Z,19.42
2022-12-13T23:01:32.805Z,19.65
2022-12-13T23:03:36.156Z,16.73
2022-12-13T23:05:38.263Z,18.02
2022-12-13T23:07:40.311Z,17.67
2022-12-13T23:09:42.693Z,18.27
2022-12-13T23:12:03.200Z,19.92
2022-12-13T23:14:08.339Z,20.90
2022-12-13T23:16:10.572Z,20.50
2022-12-13T23:18:12.782Z,19.98
2022-12-13T23:20:15.070Z,18.70
2022-12-13T23:22:17.227Z,17.70
2022-12-13T23:24:20.184Z,17.58
2022-12-13T23:26:24.948Z,19.27
2022-12-13T23:28:27.508Z,18.30
2022-12-13T23:30:30.122Z,17.70
2022-12-13T23:32:32.365Z,18.10
2022-12-13T23:34:34.642Z,18.33
2022-12-13T23:36:37.383Z,18.85
2022-12-13T23:38:39.711Z,16.67
2022-12-13T23:40:42.039Z,18.42
2022-12-13T23:42:44.287Z,17.52
2022-12-13T23:44:46.440Z,18.35
2022-12-13T23:46:49.133Z,16.25
2022-12-13T23:48:51.427Z,17.23
2022-12-13T23:50:53.760Z,17.10
2022-12-13T23:52:56.399Z,19.75
2022-12-13T23:54:58.573Z,17.10
2022-12-13T23:57:00.659Z,18.13
2022-12-13T23:59:02.816Z,18.15
